Time;durP1;ratioP1;P1;durP2;ratioP2;P2;SDS_P1;SDS_P2;PMS_P1;PMS_P2;Temp;Humidity;BMP_temperature;BMP_pressure;BME280_temperature;BME280_humidity;BME280_pressure;Samples;Min_cycle;Max_cycle;Signal;HPM_P1;HPM_P2
2022/11/05 00:09:36;;;;;;;63.03;20.40;;;11.40;99.90;;;;;;5057386;28;20532;-62
2022/11/05 00:17:37;;;;;;;63.70;20.20;;;11.40;99.90;;;;;;5045906;28;20477;-61
2022/11/05 00:20:05;;;;;;;81.00;21.10;;;11.40;99.90;;;;;;5060068;28;20560;-61
2022/11/05 00:25:17;;;;;;;100.73;21.53;;;11.50;99.90;;;;;;5074786;28;21011;-61
2022/11/05 00:27:49;;;;;;;60.30;18.50;;;11.50;99.90;;;;;;5063620;28;20586;-61
2022/11/05 00:30:19;;;;;;;50.30;17.60;;;11.70;99.90;;;;;;5064193;28;20557;-61
2022/11/05 00:32:47;;;;;;;40.43;16.33;;;11.80;99.90;;;;;;5069885;28;20489;-61
2022/11/05 00:35:15;;;;;;;32.67;16.70;;;11.80;99.90;;;;;;5071734;28;20478;-61
2022/11/05 00:37:42;;;;;;;44.30;16.60;;;11.80;99.90;;;;;;5064459;28;20682;-61
2022/11/05 00:40:10;;;;;;;42.50;14.97;;;11.70;99.90;;;;;;5061701;28;20580;-61
2022/11/05 00:45:25;;;;;;;51.47;18.90;;;11.60;99.90;;;;;;5069988;28;20556;-62
2022/11/05 00:50:36;;;;;;;24.97;10.90;;;11.60;99.90;;;;;;5057412;28;20632;-61
2022/11/05 00:53:04;;;;;;;21.00;10.87;;;11.60;99.90;;;;;;5076070;28;21222;-61
2022/11/05 00:55:34;;;;;;;28.20;14.73;;;11.60;99.90;;;;;;5065215;28;20855;-61
2022/11/05 00:58:02;;;;;;;24.53;14.20;;;11.50;99.90;;;;;;5055780;28;20552;-61
2022/11/05 01:00:32;;;;;;;29.73;14.20;;;11.60;99.90;;;;;;5074767;28;20504;-61
2022/11/05 01:03:00;;;;;;;23.30;12.17;;;11.60;99.90;;;;;;5071383;28;20510;-61
2022/11/05 01:05:28;;;;;;;31.50;13.40;;;11.60;99.90;;;;;;5059510;28;20470;-61
2022/11/05 01:07:55;;;;;;;21.33;11.43;;;11.70;99.90;;;;;;5072658;28;20551;-60
2022/11/05 01:10:23;;;;;;;31.13;16.93;;;11.70;99.90;;;;;;5065279;28;20872;-61
2022/11/05 01:12:50;;;;;;;26.73;11.00;;;11.70;99.90;;;;;;5066622;28;20482;-61
2022/11/05 01:15:18;;;;;;;27.77;15.80;;;11.80;99.90;;;;;;5054293;28;20482;-60
2022/11/05 01:17:46;;;;;;;22.10;12.47;;;11.70;99.90;;;;;;5076082;28;21029;-61
2022/11/05 01:20:13;;;;;;;24.30;11.27;;;11.70;99.90;;;;;;5066467;28;20483;-60
2022/11/05 01:22:40;;;;;;;27.30;13.77;;;11.70;99.90;;;;;;5064107;28;20494;-61
2022/11/05 01:25:08;;;;;;;28.17;15.20;;;11.70;99.90;;;;;;5068534;28;20758;-61
2022/11/05 01:27:36;;;;;;;23.43;10.73;;;11.70;99.90;;;;;;5064538;28;20486;-61
2022/11/05 01:30:04;;;;;;;20.37;12.37;;;11.80;99.90;;;;;;5062077;28;20473;-61
2022/11/05 01:32:31;;;;;;;26.03;13.03;;;11.70;99.90;;;;;;5069360;28;20474;-60
2022/11/05 01:34:59;;;;;;;26.43;11.50;;;11.70;99.90;;;;;;5066687;28;20806;-61
2022/11/05 01:37:26;;;;;;;34.47;16.47;;;11.70;99.90;;;;;;5059681;28;20478;-60
2022/11/05 01:39:53;;;;;;;27.17;12.10;;;;;;;;;;5065668;28;20826;-61
2022/11/05 01:42:22;;;;;;;46.87;17.07;;;11.60;99.90;;;;;;5063542;28;20958;-60
2022/11/05 01:44:59;;;;;;;35.43;10.73;;;11.50;99.90;;;;;;5065769;28;20482;-60
2022/11/05 01:47:43;;;;;;;34.57;14.23;;;11.40;99.90;;;;;;5063137;28;20474;-61
2022/11/05 01:50:23;;;;;;;37.17;13.73;;;11.40;99.90;;;;;;5064877;28;20478;-60
2022/11/05 01:52:52;;;;;;;24.23;10.47;;;;;;;;;;5058434;28;20481;-61
2022/11/05 01:55:23;;;;;;;32.73;13.07;;;11.40;99.90;;;;;;5059919;28;20979;-61
2022/11/05 01:57:53;;;;;;;41.10;11.53;;;11.40;99.90;;;;;;5057619;28;20490;-60
2022/11/05 02:00:20;;;;;;;27.43;12.93;;;11.40;99.90;;;;;;5069288;28;20473;-61
2022/11/05 02:02:47;;;;;;;23.47;11.13;;;11.40;99.90;;;;;;5073120;28;21019;-61
2022/11/05 02:05:15;;;;;;;29.00;10.83;;;11.40;99.90;;;;;;5066279;28;20516;-60
2022/11/05 02:07:46;;;;;;;43.23;14.63;;;11.40;99.90;;;;;;5073549;28;20473;-60
2022/11/05 02:10:14;;;;;;;22.57;11.23;;;11.30;99.90;;;;;;5064286;28;20482;-60
2022/11/05 02:12:43;;;;;;;24.80;10.00;;;;;;;;;;5061198;28;20487;-60
2022/11/05 02:15:11;;;;;;;30.63;12.53;;;;;;;;;;5065310;28;21037;-60
2022/11/05 02:17:50;;;;;;;31.70;10.50;;;11.30;99.90;;;;;;5066649;28;21121;-60
2022/11/05 02:20:33;;;;;;;34.57;12.47;;;11.20;99.90;;;;;;5067645;28;21028;-61
2022/11/05 02:23:26;;;;;;;27.07;9.97;;;11.30;99.90;;;;;;5057928;28;20474;-61
2022/11/05 02:26:32;;;;;;;31.03;11.73;;;10.80;99.90;;;;;;5065792;28;20810;-61
2022/11/05 02:29:30;;;;;;;35.43;10.70;;;11.30;99.90;;;;;;5019028;28;20476;-60
2022/11/05 02:32:08;;;;;;;49.73;12.40;;;11.30;99.90;;;;;;5065820;28;20473;-60
2022/11/05 02:34:45;;;;;;;34.57;10.20;;;11.30;99.90;;;;;;5072445;28;20486;-60
2022/11/05 02:37:20;;;;;;;52.97;12.67;;;11.30;99.90;;;;;;5069256;28;20546;-61
2022/11/05 02:39:54;;;;;;;40.90;9.10;;;11.30;99.90;;;;;;5075130;28;20512;-60
2022/11/05 02:42:29;;;;;;;63.47;16.63;;;;;;;;;;5069272;28;21008;-60
2022/11/05 02:45:00;;;;;;;24.77;7.60;;;;;;;;;;5072207;28;20473;-60
2022/11/05 02:47:37;;;;;;;40.73;11.50;;;11.30;99.90;;;;;;5076741;28;20475;-61
2022/11/05 02:50:13;;;;;;;40.17;8.67;;;13.50;99.90;;;;;;5072798;28;21143;-60
2022/11/05 02:52:47;;;;;;;26.53;9.40;;;11.30;99.90;;;;;;5069033;28;20492;-61
2022/11/05 02:55:20;;;;;;;16.57;7.07;;;11.20;99.90;;;;;;5072733;28;20853;-61
2022/11/05 02:57:47;;;;;;;25.90;7.07;;;11.10;99.90;;;;;;5085493;28;20759;-60
2022/11/05 03:00:40;;;;;;;47.47;12.67;;;11.00;99.90;;;;;;5070880;28;20736;-59
2022/11/05 03:03:14;;;;;;;44.60;8.53;;;10.90;99.90;;;;;;5072683;28;20470;-60
2022/11/05 03:05:50;;;;;;;40.83;7.93;;;10.90;99.90;;;;;;5075053;28;20486;-60
2022/11/05 03:08:28;;;;;;;75.73;13.17;;;10.80;99.90;;;;;;5059796;28;20502;-61
2022/11/05 03:10:58;;;;;;;46.80;7.47;;;;;;;;;;5083223;28;20454;-60
2022/11/05 03:13:34;;;;;;;152.03;19.10;;;10.70;99.90;;;;;;5057248;28;20477;-60
2022/11/05 03:16:03;;;;;;;59.50;7.40;;;;;;;;;;5069244;28;20545;-60
2022/11/05 03:18:35;;;;;;;122.70;15.33;;;;;;;;;;5069437;28;20493;-60
2022/11/05 03:21:08;;;;;;;21.83;6.40;;;10.60;99.90;;;;;;5081185;28;20923;-60
2022/11/05 03:23:43;;;;;;;21.50;6.57;;;10.50;99.90;;;;;;5071559;28;21011;-60
2022/11/05 03:26:16;;;;;;;22.23;6.03;;;10.60;99.90;;;;;;5073144;28;20480;-60
2022/11/05 03:28:50;;;;;;;25.00;6.50;;;10.60;99.90;;;;;;5073464;28;20836;-59
2022/11/05 03:31:18;;;;;;;29.50;9.07;;;10.60;99.90;;;;;;5062073;28;20825;-61
2022/11/05 03:33:48;;;;;;;24.20;7.07;;;10.70;99.90;;;;;;5093241;28;20485;-60
2022/11/05 03:36:20;;;;;;;26.23;6.73;;;10.70;99.90;;;;;;5074304;28;20478;-60
2022/11/05 03:38:51;;;;;;;33.03;6.30;;;10.60;99.90;;;;;;5074400;28;20601;-59
2022/11/05 03:41:20;;;;;;;33.40;7.27;;;10.70;99.90;;;;;;5074290;28;20825;-60
2022/11/05 03:43:49;;;;;;;29.30;7.80;;;;;;;;;;5075171;28;20569;-60
2022/11/05 03:46:19;;;;;;;34.03;8.07;;;;;;;;;;5071632;28;20492;-59
2022/11/05 03:48:51;;;;;;;23.97;6.77;;;10.70;99.90;;;;;;5071624;28;20481;-59
2022/11/05 03:51:28;;;;;;;33.60;9.27;;;10.70;99.90;;;;;;5078360;28;20569;-60
2022/11/05 03:53:58;;;;;;;26.53;5.93;;;10.70;99.90;;;;;;5078153;28;20504;-60
2022/11/05 03:56:30;;;;;;;26.53;9.63;;;10.70;99.90;;;;;;5074560;28;20513;-60
2022/11/05 03:58:59;;;;;;;32.40;7.07;;;10.70;99.90;;;;;;5072000;28;20487;-60
2022/11/05 04:01:26;;;;;;;43.63;12.17;;;;;;;;;;5068489;28;21064;-59
2022/11/05 04:03:55;;;;;;;44.30;6.13;;;9.40;99.90;;;;;;5078034;28;20479;-60
2022/11/05 04:14:35;;;;;;;38.43;7.53;;;10.70;99.90;;;;;;5074411;28;20536;-60
2022/11/05 04:17:08;;;;;;;40.60;8.63;;;10.70;99.90;;;;;;5073041;28;20703;-60
2022/11/05 04:25:07;;;;;;;24.27;7.10;;;10.70;99.90;;;;;;5063191;28;20485;-60
2022/11/05 04:27:34;;;;;;;40.40;8.13;;;10.70;99.90;;;;;;5070154;28;20526;-60
2022/11/05 04:30:19;;;;;;;33.80;7.10;;;10.70;99.90;;;;;;5070235;28;21005;-60
2022/11/05 04:33:02;;;;;;;39.43;8.43;;;10.60;99.90;;;;;;5064327;28;20508;-60
2022/11/05 04:35:32;;;;;;;25.37;6.50;;;;;;;;;;5072240;28;20485;-60
2022/11/05 04:37:59;;;;;;;27.53;6.80;;;10.50;99.90;;;;;;5071315;28;20478;-60
2022/11/05 04:40:26;;;;;;;34.83;11.73;;;;;;;;;;5070065;28;20481;-60
2022/11/05 04:42:54;;;;;;;30.77;7.13;;;;;;;;;;5070134;28;20482;-60
2022/11/05 04:45:20;;;;;;;38.00;12.03;;;10.50;99.90;;;;;;5071250;28;20478;-61
2022/11/05 04:47:47;;;;;;;28.70;7.43;;;10.50;99.90;;;;;;5057259;27;21059;-60
2022/11/05 04:50:14;;;;;;;39.47;8.53;;;10.40;99.90;;;;;;5064527;28;20615;-60
2022/11/05 04:52:42;;;;;;;30.10;8.63;;;10.40;99.90;;;;;;5067193;28;20471;-60
2022/11/05 04:55:10;;;;;;;40.50;7.90;;;;;;;;;;5068690;28;20475;-59
2022/11/05 04:57:36;;;;;;;27.13;5.80;;;7.60;99.90;;;;;;5053479;28;21104;-60
2022/11/05 05:00:04;;;;;;;26.73;6.60;;;;;;;;;;5077394;28;20492;-60
2022/11/05 05:02:31;;;;;;;40.83;9.83;;;10.60;99.90;;;;;;5072471;28;20875;-60
2022/11/05 05:04:58;;;;;;;36.63;6.87;;;10.40;99.90;;;;;;5069204;28;20505;-61
2022/11/05 05:07:25;;;;;;;52.70;13.13;;;10.40;99.90;;;;;;5070299;28;20470;-60
2022/11/05 05:09:53;;;;;;;50.57;8.87;;;;;;;;;;5072238;28;20505;-60
2022/11/05 05:12:20;;;;;;;62.37;12.73;;;10.10;99.90;;;;;;5071469;28;20486;-60
2022/11/05 05:14:48;;;;;;;39.07;9.40;;;;;;;;;;5074770;28;21029;-61
2022/11/05 05:17:15;;;;;;;42.10;9.77;;;;;;;;;;5067892;28;20563;-60
2022/11/05 05:22:28;;;;;;;109.00;16.63;;;;;;;;;;5067633;28;20482;-60
2022/11/05 05:24:56;;;;;;;56.53;9.80;;;9.40;99.90;;;;;;5066446;28;20981;-61
2022/11/05 05:27:24;;;;;;;48.33;11.30;;;9.40;99.90;;;;;;5084147;28;21192;-61
2022/11/05 05:29:51;;;;;;;59.70;11.60;;;9.30;99.90;;;;;;5070869;28;20493;-60
2022/11/05 05:32:18;;;;;;;45.57;12.50;;;;;;;;;;5085086;28;20474;-61
2022/11/05 05:34:45;;;;;;;45.70;8.90;;;;;;;;;;5068288;28;20862;-61
2022/11/05 05:37:12;;;;;;;49.27;11.47;;;9.30;99.90;;;;;;5080737;28;20818;-61
2022/11/05 05:39:39;;;;;;;37.10;10.50;;;9.30;99.90;;;;;;5075329;28;20481;-61
2022/11/05 05:42:07;;;;;;;56.43;12.70;;;9.20;99.90;;;;;;5075318;28;21069;-60
2022/11/05 05:44:33;;;;;;;67.90;16.03;;;9.10;99.90;;;;;;5074787;28;20474;-61
2022/11/05 05:47:00;;;;;;;76.60;14.87;;;;;;;;;;5074507;28;20767;-61
2022/11/05 05:49:27;;;;;;;115.83;18.00;;;;;;;;;;5063626;28;20490;-61
2022/11/05 05:51:55;;;;;;;85.57;11.43;;;;;;;;;;5087984;28;20512;-60
2022/11/05 05:54:22;;;;;;;95.40;17.57;;;9.00;99.90;;;;;;5078954;28;20477;-60
2022/11/05 05:56:49;;;;;;;36.67;8.53;;;7.60;99.90;;;;;;5079688;28;20745;-60
2022/11/05 05:59:17;;;;;;;38.80;10.67;;;9.10;99.90;;;;;;5060523;28;21053;-61
2022/11/05 06:01:44;;;;;;;37.87;10.90;;;9.10;99.90;;;;;;5036625;28;20757;-61
2022/11/05 06:04:11;;;;;;;39.97;11.00;;;;;;;;;;5044694;28;20492;-61
2022/11/05 06:06:38;;;;;;;30.07;9.43;;;9.10;99.90;;;;;;5071754;28;20837;-61
2022/11/05 06:09:05;;;;;;;39.30;10.83;;;;;;;;;;5054446;28;20477;-60
2022/11/05 06:11:32;;;;;;;58.70;14.37;;;;;;;;;;5074496;28;20498;-61
2022/11/05 06:13:59;;;;;;;52.90;12.90;;;9.10;99.90;;;;;;5070116;28;20531;-60
2022/11/05 06:16:28;;;;;;;135.27;22.13;;;;;;;;;;5081408;28;20881;-60
2022/11/05 06:18:55;;;;;;;108.63;15.77;;;;;;;;;;5073038;28;20484;-60
2022/11/05 06:21:22;;;;;;;155.57;21.90;;;9.10;99.90;;;;;;5080122;28;20480;-60
2022/11/05 06:23:49;;;;;;;68.73;15.07;;;;;;;;;;5069593;28;20553;-61
2022/11/05 06:26:18;;;;;;;78.03;13.77;;;9.00;99.90;;;;;;5075349;28;20951;-61
2022/11/05 06:28:45;;;;;;;60.20;12.03;;;8.90;99.90;;;;;;5074138;28;20489;-60
2022/11/05 06:31:13;;;;;;;36.47;13.67;;;;;;;;;;5053511;28;20493;-60
2022/11/05 06:33:41;;;;;;;28.50;9.20;;;8.60;99.90;;;;;;5083763;28;21001;-60
2022/11/05 06:36:09;;;;;;;32.60;10.13;;;;;;;;;;5067520;28;20490;-60
2022/11/05 06:38:37;;;;;;;34.43;12.00;;;;;;;;;;5068039;28;20486;-60
2022/11/05 06:41:05;;;;;;;46.50;11.20;;;;;;;;;;5062854;28;20470;-60
2022/11/05 06:43:33;;;;;;;40.30;11.80;;;;;;;;;;5089034;28;20490;-61
2022/11/05 06:46:02;;;;;;;40.27;11.73;;;8.60;99.90;;;;;;5074698;28;20559;-61
2022/11/05 06:48:29;;;;;;;85.40;18.60;;;;;;;;;;5066122;28;20501;-60
2022/11/05 06:50:58;;;;;;;54.03;12.90;;;8.40;99.90;;;;;;5075450;28;20478;-61
2022/11/05 06:53:25;;;;;;;117.37;18.33;;;;;;;;;;5064166;28;20532;-61
2022/11/05 06:55:52;;;;;;;101.63;15.60;;;;;;;;;;5085701;28;20967;-61
2022/11/05 06:58:19;;;;;;;82.60;17.80;;;;;;;;;;5066550;28;21009;-60
2022/11/05 07:00:46;;;;;;;38.93;10.60;;;8.50;99.90;;;;;;5068427;28;20891;-61
2022/11/05 07:03:13;;;;;;;56.43;13.00;;;8.60;99.90;;;;;;5071646;28;20478;-60
2022/11/05 07:05:43;;;;;;;48.83;12.40;;;8.70;99.90;;;;;;5069899;28;20719;-61
2022/11/05 07:08:11;;;;;;;69.30;14.27;;;;;;;;;;5073104;28;20482;-61
2022/11/05 07:10:38;;;;;;;42.00;11.13;;;;;;;;;;5066316;28;20498;-60
2022/11/05 07:13:05;;;;;;;55.57;11.77;;;;;;;;;;5074615;28;20878;-60
2022/11/05 07:15:32;;;;;;;65.00;16.60;;;9.00;99.90;;;;;;5059313;28;20490;-60
2022/11/05 07:18:02;;;;;;;63.33;14.80;;;9.00;99.90;;;;;;5069222;28;20516;-61
2022/11/05 07:20:30;;;;;;;76.43;18.00;;;;;;;;;;5074288;28;20473;-60
2022/11/05 07:23:03;;;;;;;45.10;13.20;;;9.00;99.90;;;;;;5065787;28;20470;-60
2022/11/05 07:25:32;;;;;;;75.70;19.80;;;;;;;;;;5074573;28;21224;-60
2022/11/05 07:28:00;;;;;;;52.33;15.63;;;;;;;;;;5073528;28;20481;-60
2022/11/05 07:30:26;;;;;;;73.80;21.87;;;10.90;99.90;;;;;;5068354;28;20831;-60
2022/11/05 07:32:53;;;;;;;54.77;14.40;;;11.70;99.90;;;;;;5077744;28;20596;-61
2022/11/05 07:35:21;;;;;;;90.10;20.87;;;;;;;;;;5072404;28;20481;-61
2022/11/05 07:37:49;;;;;;;36.57;14.30;;;13.40;99.90;;;;;;5069380;28;20463;-61
2022/11/05 07:40:18;;;;;;;39.70;12.80;;;13.70;97.80;;;;;;5073465;28;20470;-60
2022/11/05 07:42:48;;;;;;;67.57;15.83;;;13.40;96.90;;;;;;5068296;28;20478;-61
2022/11/05 07:45:15;;;;;;;58.90;13.87;;;14.60;98.10;;;;;;5072246;28;20490;-61
2022/11/05 07:47:46;;;;;;;37.63;11.77;;;;;;;;;;5070439;28;20483;-61
2022/11/05 07:50:14;;;;;;;59.07;14.17;;;15.10;97.70;;;;;;5064207;28;20579;-61
2022/11/05 07:52:40;;;;;;;58.00;13.20;;;15.70;96.10;;;;;;5070136;28;20790;-60
2022/11/05 07:55:08;;;;;;;41.43;14.53;;;;;;;;;;5069007;28;20993;-61
2022/11/05 07:57:41;;;;;;;50.60;14.90;;;16.20;94.30;;;;;;5060664;27;20690;-61
2022/11/05 08:00:11;;;;;;;61.83;14.80;;;;;;;;;;5077782;28;20998;-61
2022/11/05 08:02:37;;;;;;;40.70;13.80;;;15.20;95.20;;;;;;5077288;28;20488;-61
2022/11/05 08:05:05;;;;;;;70.33;17.17;;;;;;;;;;5066285;28;20482;-60
2022/11/05 08:07:32;;;;;;;108.43;20.90;;;15.10;95.40;;;;;;5070201;28;21009;-61
2022/11/05 08:10:02;;;;;;;90.73;18.10;;;;;;;;;;5063603;28;20478;-61
2022/11/05 08:12:29;;;;;;;96.73;21.70;;;;;;;;;;5074300;28;20479;-61
2022/11/05 08:14:56;;;;;;;48.50;16.17;;;13.40;95.90;;;;;;5067094;28;20822;-61
2022/11/05 08:17:24;;;;;;;73.70;25.27;;;12.40;96.90;;;;;;5063320;28;20490;-60
2022/11/05 08:19:51;;;;;;;49.23;18.70;;;11.60;98.10;;;;;;5079601;28;20477;-60
2022/11/05 08:22:18;;;;;;;53.60;18.40;;;14.70;99.90;;;;;;5076394;28;20487;-61
2022/11/05 08:24:44;;;;;;;50.90;19.77;;;10.90;99.90;;;;;;5066251;28;20470;-61
2022/11/05 08:27:11;;;;;;;52.57;18.73;;;10.90;99.90;;;;;;5068516;28;20478;-60
2022/11/05 08:29:38;;;;;;;35.03;14.50;;;;;;;;;;5066337;28;20483;-60
2022/11/05 08:32:05;;;;;;;51.53;16.67;;;7.10;99.60;;;;;;5057028;28;20486;-61
2022/11/05 08:34:34;;;;;;;68.97;22.37;;;10.50;99.90;;;;;;5079641;28;20959;-59
2022/11/05 08:37:01;;;;;;;67.97;18.13;;;;;;;;;;5072071;28;20478;-61
2022/11/05 08:39:28;;;;;;;101.33;23.43;;;;;;;;;;5046753;28;20486;-60
2022/11/05 08:41:55;;;;;;;98.03;19.57;;;;;;;;;;5070784;28;20481;-60
2022/11/05 08:44:22;;;;;;;108.47;25.53;;;10.10;99.90;;;;;;5065533;28;20833;-59
2022/11/05 08:46:49;;;;;;;92.87;20.17;;;;;;;;;;5070849;28;20568;-59
2022/11/05 08:49:16;;;;;;;66.27;18.97;;;;;;;;;;5069882;28;20879;-60
2022/11/05 08:51:45;;;;;;;45.87;16.20;;;10.60;99.90;;;;;;5073969;28;20482;-60
2022/11/05 08:54:12;;;;;;;40.03;15.40;;;10.60;99.90;;;;;;5067747;28;20486;-60
2022/11/05 08:56:39;;;;;;;36.17;16.00;;;10.60;99.90;;;;;;5065218;28;20669;-60
2022/11/05 08:59:06;;;;;;;46.00;14.93;;;;;;;;;;5080377;28;20826;-60
2022/11/05 09:01:33;;;;;;;47.70;16.97;;;10.60;99.90;;;;;;5060628;28;21030;-60
2022/11/05 09:04:00;;;;;;;47.43;14.70;;;10.60;99.90;;;;;;5076191;28;20505;-59
2022/11/05 09:06:28;;;;;;;63.87;18.50;;;;;;;;;;5074082;28;20486;-60
2022/11/05 09:08:56;;;;;;;72.17;17.80;;;10.50;99.90;;;;;;5071717;28;20494;-60
2022/11/05 09:11:23;;;;;;;69.40;19.57;;;;;;;;;;5069082;28;20836;-60
2022/11/05 09:13:50;;;;;;;57.50;15.90;;;;;;;;;;5078825;28;20491;-59
2022/11/05 09:16:19;;;;;;;96.87;20.97;;;;;;;;;;5057715;28;20839;-60
2022/11/05 09:18:46;;;;;;;79.70;14.43;;;10.70;99.90;;;;;;5072997;28;20575;-60
2022/11/05 09:21:14;;;;;;;163.67;22.27;;;;;;;;;;5071459;28;20493;-59
2022/11/05 09:23:41;;;;;;;108.47;19.80;;;;;;;;;;5069548;28;20870;-61
2022/11/05 09:26:09;;;;;;;77.93;17.50;;;10.60;99.90;;;;;;5072778;28;20481;-60
2022/11/05 09:28:36;;;;;;;53.40;16.27;;;10.60;99.90;;;;;;5072900;28;20474;-59
2022/11/05 09:31:06;;;;;;;54.77;16.70;;;;;;;;;;5068009;28;20478;-60
2022/11/05 09:33:33;;;;;;;67.33;18.43;;;10.80;99.90;;;;;;5062198;28;20494;-60
2022/11/05 09:36:00;;;;;;;50.53;14.07;;;10.60;99.90;;;;;;5080871;28;20886;-60
2022/11/05 09:38:27;;;;;;;65.07;20.37;;;10.50;99.90;;;;;;5068835;28;20475;-60
2022/11/05 09:40:56;;;;;;;64.67;14.33;;;;;;;;;;5068945;28;20477;-59
2022/11/05 09:43:27;;;;;;;62.67;19.97;;;;;;;;;;5069534;28;20475;-59
2022/11/05 09:45:56;;;;;;;52.27;14.50;;;;;;;;;;5062920;28;21008;-60
2022/11/05 09:48:27;;;;;;;76.97;20.10;;;10.40;99.90;;;;;;5077169;28;20470;-60
2022/11/05 09:50:56;;;;;;;62.53;16.77;;;;;;;;;;5070613;28;20489;-60
2022/11/05 09:53:23;;;;;;;87.13;24.73;;;;;;;;;;5071110;28;21028;-60
2022/11/05 09:55:52;;;;;;;77.80;21.60;;;;;;;;;;5070301;28;20482;-60
2022/11/05 09:58:21;;;;;;;63.70;21.07;;;;;;;;;;5071442;28;20486;-61
2022/11/05 10:00:51;;;;;;;50.23;17.63;;;10.30;99.90;;;;;;5073333;28;20478;-60
2022/11/05 10:03:22;;;;;;;63.37;19.37;;;10.30;99.90;;;;;;5068719;28;20474;-60
2022/11/05 10:05:51;;;;;;;49.47;16.43;;;10.30;99.90;;;;;;5073628;28;21014;-60
2022/11/05 10:08:21;;;;;;;74.87;22.77;;;10.10;99.90;;;;;;5069042;28;20474;-60
2022/11/05 10:10:51;;;;;;;75.33;19.70;;;;;;;;;;5063605;28;20493;-60
2022/11/05 10:13:22;;;;;;;65.63;22.20;;;;;;;;;;5087610;28;21001;-59
2022/11/05 10:15:57;;;;;;;46.33;13.20;;;10.00;99.90;;;;;;5074326;28;20580;-60
2022/11/05 10:18:27;;;;;;;102.30;23.93;;;;;;;;;;5068745;28;21052;-60
2022/11/05 10:20:54;;;;;;;78.50;15.43;;;;;;;;;;5074081;28;20481;-60
2022/11/05 10:23:22;;;;;;;176.87;24.70;;;;;;;;;;5070044;28;20908;-59
2022/11/05 10:25:52;;;;;;;74.23;18.93;;;;;;;;;;5084580;28;20470;-60
2022/11/05 10:28:21;;;;;;;82.67;18.97;;;;;;;;;;5071525;28;20485;-60
2022/11/05 10:30:49;;;;;;;73.03;19.53;;;;;;;;;;5075398;28;20486;-60
2022/11/05 10:33:22;;;;;;;76.90;19.17;;;;;;;;;;5075135;28;20470;-60
2022/11/05 10:35:51;;;;;;;72.30;17.20;;;;;;;;;;5074080;28;20521;-59
2022/11/05 10:38:18;;;;;;;91.80;22.33;;;;;;;;;;5071989;28;20511;-60
2022/11/05 10:40:49;;;;;;;74.63;18.10;;;;;;;;;;5073421;28;21049;-60
2022/11/05 10:43:18;;;;;;;76.97;19.27;;;;;;;;;;5075820;28;20498;-60
2022/11/05 10:45:55;;;;;;;82.73;21.33;;;10.20;99.90;;;;;;5071076;28;20984;-60
2022/11/05 10:48:28;;;;;;;141.60;25.80;;;;;;;;;;5069838;28;20475;-60
2022/11/05 10:50:55;;;;;;;90.70;18.80;;;;;;;;;;5073229;28;20482;-60
2022/11/05 10:53:26;;;;;;;151.13;27.60;;;10.20;99.90;;;;;;5069183;28;20473;-59
2022/11/05 10:55:53;;;;;;;142.73;30.90;;;;;;;;;;5083193;28;20482;-60
2022/11/05 10:58:23;;;;;;;126.53;26.70;;;10.30;99.90;;;;;;5075018;28;20487;-60
2022/11/05 11:01:07;;;;;;;93.40;20.00;;;;;;;;;;5076839;28;20486;-60
2022/11/05 11:03:40;;;;;;;91.47;22.97;;;10.20;99.90;;;;;;5068046;28;20474;-60
2022/11/05 11:06:15;;;;;;;72.70;18.87;;;;;;;;;;5053846;28;20478;-59
2022/11/05 11:08:45;;;;;;;87.07;25.27;;;10.30;99.90;;;;;;5067006;28;20509;-60
2022/11/05 11:11:13;;;;;;;73.80;19.17;;;;;;;;;;5072290;28;20486;-60
2022/11/05 11:13:51;;;;;;;75.70;19.90;;;10.10;99.90;;;;;;5072497;28;20487;-60
2022/11/05 11:16:20;;;;;;;104.27;22.70;;;;;;;;;;5054646;28;20977;-60
2022/11/05 11:18:53;;;;;;;95.13;19.43;;;;;;;;;;5075854;28;20478;-60
2022/11/05 11:21:22;;;;;;;130.80;24.17;;;10.30;99.90;;;;;;5073839;28;20951;-60
2022/11/05 11:23:54;;;;;;;60.60;18.53;;;;;;;;;;5074293;28;20489;-60
2022/11/05 11:26:22;;;;;;;157.83;26.43;;;10.30;99.90;;;;;;5077275;28;20490;-60
2022/11/05 11:28:52;;;;;;;89.80;19.83;;;;;;;;;;5071433;28;20482;-60
2022/11/05 11:31:23;;;;;;;120.63;24.13;;;10.30;99.90;;;;;;5073014;28;20486;-60
2022/11/05 11:33:58;;;;;;;59.63;16.20;;;10.20;99.90;;;;;;5069077;28;20482;-60
2022/11/05 11:36:26;;;;;;;97.87;24.40;;;;;;;;;;5069749;28;20478;-60
2022/11/05 11:38:59;;;;;;;82.30;19.47;;;10.30;99.90;;;;;;5069346;28;20497;-60
2022/11/05 11:41:31;;;;;;;102.00;25.77;;;10.30;99.90;;;;;;5059477;28;20474;-60
2022/11/05 11:44:04;;;;;;;85.17;17.80;;;10.40;99.90;;;;;;5075904;28;20496;-60
2022/11/05 11:46:34;;;;;;;126.97;24.60;;;10.40;99.90;;;;;;5057083;28;20510;-60
2022/11/05 11:49:02;;;;;;;87.97;15.77;;;;;;;;;;5063191;28;20502;-60
2022/11/05 11:51:30;;;;;;;205.27;27.07;;;;;;;;;;5062425;28;20482;-60
2022/11/05 11:53:58;;;;;;;157.97;21.13;;;;;;;;;;5074649;28;20496;-61
2022/11/05 11:56:25;;;;;;;173.97;26.43;;;;;;;;;;5069540;28;20505;-61
2022/11/05 11:58:53;;;;;;;106.47;18.27;;;;;;;;;;5079047;28;20474;-61
2022/11/05 12:01:29;;;;;;;157.43;26.20;;;;;;;;;;5072212;28;21040;-60
2022/11/05 12:04:01;;;;;;;107.67;17.97;;;10.70;99.90;;;;;;5064092;28;20505;-60
2022/11/05 12:06:35;;;;;;;132.67;23.83;;;10.70;99.90;;;;;;5066294;28;20490;-60
2022/11/05 12:09:05;;;;;;;68.93;16.00;;;;;;;;;;5068849;28;20479;-61
2022/11/05 12:11:37;;;;;;;102.30;22.60;;;;;;;;;;5055861;28;20561;-60
2022/11/05 12:14:11;;;;;;;83.10;17.73;;;10.90;99.90;;;;;;5077967;28;20489;-60
2022/11/05 12:17:08;;;;;;;73.20;15.27;;;10.80;99.90;;;;;;5070797;28;20479;-61
2022/11/05 12:20:09;;;;;;;73.63;14.90;;;10.80;99.90;;;;;;5070663;28;20697;-61
2022/11/05 12:23:02;;;;;;;57.67;14.17;;;10.80;99.90;;;;;;5069770;28;20531;-61
2022/11/05 12:25:35;;;;;;;63.63;15.60;;;10.70;99.90;;;;;;5038780;28;20545;-60
2022/11/05 12:28:18;;;;;;;50.80;12.97;;;;;;;;;;5081637;28;20744;-60
2022/11/05 12:30:50;;;;;;;66.80;14.97;;;;;;;;;;5070836;28;20492;-62
2022/11/05 12:33:33;;;;;;;49.77;13.10;;;10.60;99.90;;;;;;5071548;27;20469;-60
2022/11/05 12:36:12;;;;;;;40.30;13.03;;;10.50;99.90;;;;;;5063583;28;20818;-60
2022/11/05 12:39:01;;;;;;;46.80;11.63;;;10.40;99.90;;;;;;5060289;28;20563;-62
2022/11/05 12:41:33;;;;;;;57.77;15.40;;;10.40;99.90;;;;;;5045660;28;20481;-61
2022/11/05 12:44:15;;;;;;;42.73;13.97;;;10.40;99.90;;;;;;5057164;28;20463;-61
2022/11/05 12:46:50;;;;;;;55.07;12.30;;;10.50;99.90;;;;;;5067698;28;20827;-61
2022/11/05 12:49:38;;;;;;;33.50;13.07;;;10.60;99.90;;;;;;5065857;28;20711;-61
2022/11/05 12:52:19;;;;;;;32.20;10.47;;;10.70;99.90;;;;;;5063668;28;20493;-61
2022/11/05 12:55:00;;;;;;;37.83;9.90;;;;;;;;;;5059810;28;20494;-61
2022/11/05 12:57:29;;;;;;;54.30;16.67;;;10.70;99.90;;;;;;5064213;28;20496;-61
2022/11/05 13:00:02;;;;;;;45.63;10.97;;;10.70;99.90;;;;;;5074204;28;20482;-61
2022/11/05 13:02:32;;;;;;;39.90;14.00;;;;;;;;;;5076464;28;20480;-61
2022/11/05 13:05:05;;;;;;;38.47;11.07;;;10.90;99.90;;;;;;5067552;28;20496;-61
2022/11/05 13:07:34;;;;;;;46.97;11.60;;;;;;;;;;5066243;28;20478;-61
2022/11/05 13:10:06;;;;;;;35.87;10.93;;;;;;;;;;5070901;28;20498;-61
2022/11/05 13:12:38;;;;;;;35.03;12.67;;;10.90;99.90;;;;;;5064347;28;20628;-61
2022/11/05 13:15:08;;;;;;;42.27;12.10;;;;;;;;;;5065982;28;20477;-61
2022/11/05 13:17:39;;;;;;;37.80;11.43;;;;;;;;;;5070975;28;20502;-60
2022/11/05 13:20:14;;;;;;;42.57;9.90;;;11.20;99.90;;;;;;5070353;28;20517;-60
2022/11/05 13:22:44;;;;;;;29.83;11.77;;;11.20;99.90;;;;;;5070251;28;20485;-60
2022/11/05 13:25:21;;;;;;;44.93;12.97;;;;;;;;;;5078724;28;20482;-60
2022/11/05 13:27:54;;;;;;;38.50;8.87;;;11.30;99.90;;;;;;5062909;28;20498;-61
2022/11/05 13:30:22;;;;;;;37.37;14.60;;;;;;;;;;5060489;28;20483;-61
2022/11/05 13:32:52;;;;;;;42.90;11.00;;;;;;;;;;5078462;28;20640;-61
2022/11/05 13:35:25;;;;;;;44.80;13.47;;;11.60;99.90;;;;;;5073207;28;20474;-60
2022/11/05 13:41:04;;;;;;;33.57;11.10;;;11.80;99.90;;;;;;5040461;28;20550;-60
2022/11/05 13:43:56;;;;;;;35.67;10.50;;;12.00;99.80;;;;;;5072346;28;20877;-60
2022/11/05 13:46:32;;;;;;;41.60;14.03;;;;;;;;;;5066414;28;20485;-61
2022/11/05 13:49:18;;;;;;;38.27;8.17;;;;;;;;;;5063786;28;20821;-61
2022/11/05 13:51:52;;;;;;;35.20;10.00;;;12.20;98.70;;;;;;5061766;28;20959;-60
2022/11/05 13:54:40;;;;;;;24.77;9.17;;;;;;;;;;5073226;28;20473;-61
2022/11/05 13:57:33;;;;;;;39.97;10.40;;;12.20;98.70;;;;;;5066226;28;20482;-62
2022/11/05 14:00:06;;;;;;;29.23;8.83;;;12.20;98.40;;;;;;5075497;28;20474;-61
2022/11/05 14:02:38;;;;;;;53.10;12.30;;;12.10;97.60;;;;;;5068761;28;20587;-61
2022/11/05 14:05:06;;;;;;;42.20;8.57;;;;;;;;;;5068634;28;20505;-59
2022/11/05 14:07:35;;;;;;;44.00;11.00;;;;;;;;;;5068927;28;20772;-60